• Join FlightAware (Why Join?)
  • Login
  • US Flag 
12:06AM EDT


 

Airport Tracker/Info


-or-


 

Live Flight TrackerFlight Track Log ✈ UAL6044 ✈ 27-Apr-2013 ✈ KIND - KIAD

Flight Track Log - Related Links

Times and Time Zones

All times are in EDT time to prevent confusion due to time zone crossing. See the UAL6044 flight status page for this flight to view local times or setup timezone preferences in your user account.

Time Position Orientation Groundspeed Altitude Reporting Facility
EDT Latitude Longitude Course Direction KTS MPH feet Rate Location/Type
02:40PM 39.7167 -86.2667 74° East 170 196 1,400  Level Indianapolis TRACON
02:40PM 39.7500 -86.2500 21° North 181 208 2,400 1,680 Climbing Indianapolis TRACON
02:41PM 39.7667 -86.1667 75° East 251 289 4,100 1,920 Climbing Indianapolis TRACON
02:42PM 39.7769 -86.1192 74° East 240 276 5,600 1,560 Climbing Indianapolis Center
02:43PM 39.7942 -85.7133 79° East  Level FlightAware Approximate
02:43PM 39.7892 -86.0261 80° East 251 289 6,800  Level Indianapolis Center
02:44PM 39.8161 -85.5703 79° East  Level FlightAware Approximate
02:44PM 39.8008 -85.9292 81° East 264 304 9,000  Level Indianapolis Center
02:45PM 39.8470 -85.4300 74° East  Level FlightAware Approximate
02:45PM 39.8139 -85.8247 81° East 289 333 10,800  Level Indianapolis Center
02:46PM 39.8261 -85.7144 82° East 305 351 12,800 1,800 Climbing Indianapolis Center
02:47PM 39.8411 -85.6039 80° East 309 356 14,600 1,680 Climbing Indianapolis Center
02:48PM 39.8542 -85.4889 82° East 319 367 16,300 1,500 Climbing Indianapolis Center
02:49PM 39.8683 -85.3706 81° East 328 377 17,800 1,500 Climbing Indianapolis Center
02:50PM 39.8844 -85.2281 82° East 338 389 19,400 1,500 Climbing Indianapolis Center
02:51PM 39.8917 -85.1008 86° East 349 402 20,900 1,440 Climbing Indianapolis Center
02:52PM 39.8969 -84.9703 87° East 358 412 22,400 1,260 Climbing Indianapolis Center
02:53PM 39.9039 -84.8500 86° East 361 415 23,500 1,020 Climbing Indianapolis Center
02:54PM 39.9119 -84.7117 86° East 377 434 24,500 540 Climbing Indianapolis Center
02:55PM 39.9194 -84.5450 87° East 391 450 24,700 -360 Climbing Indianapolis Center
02:56PM 39.9269 -84.4025 86° East 392 451 23,800 -840 Descending Indianapolis Center
02:57PM 39.9336 -84.2486 87° East 418 481 23,000 -420 Descending Indianapolis Center
02:58PM 39.9514 -84.1125 80° East 380 437 23,000  Level Indianapolis Center
02:59PM 39.9692 -83.9839 80° East 360 414 23,000  Level Indianapolis Center
03:00PM 39.9875 -83.8519 80° East 365 420 23,000  Level Indianapolis Center
03:01PM 40.0061 -83.7150 80° East 378 435 23,000  Level Indianapolis Center
03:02PM 40.0261 -83.5631 80° East 414 476 23,000  Level Indianapolis Center
03:03PM 40.0472 -83.4025 80° East 436 502 23,000  Level Indianapolis Center
03:05PM 40.0669 -83.2483 80° East 426 490 23,000  Level Indianapolis Center
03:06PM 40.0864 -83.0983 80° East 416 479 23,000  Level Indianapolis Center
03:07PM 40.1058 -82.9489 80° East 413 475 23,000  Level Indianapolis Center
03:08PM 40.1247 -82.7983 81° East 415 478 23,000  Level Indianapolis Center
03:09PM 40.1439 -82.6469 81° East 417 480 23,000  Level Indianapolis Center
03:10PM 40.1383 -82.4961 93° East 416 479 23,000  Level Indianapolis Center
03:11PM 40.1069 -82.3461 105° East 421 484 23,000  Level Indianapolis Center
03:12PM 40.0758 -82.1967 105° East 424 488 23,000  Level Indianapolis Center
03:13PM 40.0383 -82.0211 106° East 426 490 23,000  Level Indianapolis Center
03:14PM 40.0058 -81.8708 106° East 426 490 23,000  Level Indianapolis Center
03:15PM 39.9756 -81.7267 105° East 429 494 23,000  Level Indianapolis Center
03:16PM 39.9403 -81.5689 106° East 428 493 23,000  Level Indianapolis Center
03:17PM 39.9097 -81.4261 106° East 429 494 23,000  Level Indianapolis Center
03:18PM 39.8769 -81.2747 106° East 433 498 23,000  Level Indianapolis Center
03:19PM 39.8442 -81.1247 106° East 431 496 23,000  Level Indianapolis Center
03:20PM 39.8111 -80.9742 106° East 432 497 23,000  Level Indianapolis Center
03:21PM 39.7769 -80.8228 106° East 434 499 23,000  Level Indianapolis Center
03:22PM 39.7419 -80.6533 105° East 428 493 23,000  Level Cleveland Center
03:23PM 39.7086 -80.5047 106° East 433 498 23,000  Level Cleveland Center
03:24PM 39.6750 -80.3564 106° East 433 498 23,000  Level Cleveland Center
03:26PM 39.6203 -80.1203 107° East 425 489 23,000  Level Washington Center
03:27PM 39.5861 -79.9700 106° East 425 489 23,000  Level Washington Center
03:28PM 39.5539 -79.8228 106° East 425 489 23,000  Level Washington Center
03:29PM 39.5258 -79.6703 103° East 425 489 23,000  Level Washington Center
03:30PM 39.4978 -79.5128 103° East 431 496 23,000  Level Washington Center
03:31PM 39.4692 -79.3606 104° East 431 496 23,000  Level Washington Center
03:32PM 39.4392 -79.1872 103° East 443 510 23,000  Level Washington Center
03:33PM 39.4103 -79.0381 104° East 443 510 23,000 -1,020 Level Washington Center
03:34PM 39.3811 -78.8836 104° East 438 504 21,000 -2,280 Descending Washington Center
03:35PM 39.3558 -78.7400 103° East 431 496 18,600 -2,160 Descending Washington Center
03:36PM 39.3300 -78.6047 104° East 412 474 16,800 -2,160 Descending Washington Center
03:37PM 39.3083 -78.4725 102° East 387 445 14,300 -2,040 Descending Washington Center
03:38PM 39.2839 -78.3614 106° East 371 427 12,700 -1,560 Descending Washington Center
03:39PM 39.2358 -78.2686 124° Southeast 333 383 11,300 -1,260 Descending Washington Center
03:40PM 39.1897 -78.1839 125° Southeast 306 352 10,300 -1,380 Descending Washington Center
03:41PM 39.1458 -78.1019 125° Southeast 288 331 8,600 -1,620 Descending Washington Center
03:42PM 39.1056 -78.0231 123° Southeast 273 314 7,200 -840 Descending Washington Center
03:43PM 39.0633 -77.9469 126° Southeast 268 308 7,000 -120 Descending Washington Center
03:44PM 39.0192 -77.8600 123° Southeast 268 308 7,000 -60 Level Washington Center
03:45PM 38.9789 -77.7839 124° Southeast 268 308 6,900 -300 Descending Washington Center
03:47PM 38.9833 -77.6000 88° East 234 269 6,100 -300 Descending Potomac TRACON
03:48PM 39.0500 -77.5667 21° North 237 273 6,100 -420 Level Potomac TRACON
03:49PM 39.1000 -77.5667 360° North 219 252 5,300 -1,020 Descending Potomac TRACON
03:50PM 39.1333 -77.5333 38° Northeast 207 238 4,200 -1,140 Descending Potomac TRACON
03:51PM 39.1000 -77.4833 131° Southeast 196 226 3,000 -1,140 Descending Potomac TRACON